Time;durP1;ratioP1;P1;durP2;ratioP2;P2;SDS_P1;SDS_P2;PMS_P1;PMS_P2;Temp;Humidity;BMP_temperature;BMP_pressure;BME280_temperature;BME280_humidity;BME280_pressure;Samples;Min_cycle;Max_cycle;Signal;HPM_P1;HPM_P2
2023/03/02 00:02:31;;;;;;;37.97;18.17;;;4.60;99.90;;;;;;5124466;28;20377;-67
2023/03/02 00:05:02;;;;;;;47.60;21.88;;;4.50;99.90;;;;;;5109280;28;20048;-69
2023/03/02 00:07:37;;;;;;;32.85;18.83;;;4.40;99.90;;;;;;5135504;28;20217;-69
2023/03/02 00:10:10;;;;;;;41.53;20.63;;;4.40;99.90;;;;;;5116390;28;20030;-66
2023/03/02 00:12:44;;;;;;;35.88;17.75;;;4.30;99.90;;;;;;5132436;28;20057;-68
2023/03/02 00:15:15;;;;;;;;;;;4.30;99.90;;;;;;5130715;28;20110;-70
2023/03/02 00:17:52;;;;;;;61.30;25.25;;;4.40;99.90;;;;;;5131753;28;19918;-69
2023/03/02 00:20:25;;;;;;;74.78;31.42;;;4.40;99.90;;;;;;5126213;28;20051;-68
2023/03/02 00:22:59;;;;;;;45.45;21.63;;;4.50;99.90;;;;;;5111562;29;20057;-70
2023/03/02 00:25:36;;;;;;;40.00;19.35;;;4.50;99.90;;;;;;5117153;28;20165;-68
2023/03/02 00:28:07;;;;;;;38.33;18.23;;;4.50;99.90;;;;;;5133433;28;20043;-67
2023/03/02 00:30:44;;;;;;;33.78;18.70;;;4.40;99.90;;;;;;5146260;28;20031;-68
2023/03/02 00:33:16;;;;;;;39.40;18.17;;;4.40;99.90;;;;;;5116319;28;20046;-67
2023/03/02 00:35:47;;;;;;;39.45;16.90;;;4.50;99.90;;;;;;5111822;28;20030;-68
2023/03/02 00:38:21;;;;;;;31.67;17.95;;;4.50;99.90;;;;;;5112037;29;20055;-68
2023/03/02 00:40:54;;;;;;;37.67;19.15;;;4.40;99.90;;;;;;5112259;29;20240;-69
2023/03/02 00:43:28;;;;;;;34.35;18.65;;;4.30;99.90;;;;;;5119373;28;20034;-69
2023/03/02 00:46:15;;;;;;;37.83;17.23;;;4.40;99.90;;;;;;5124768;28;20050;-69
2023/03/02 00:48:50;;;;;;;37.28;18.27;;;4.50;99.90;;;;;;5140239;28;20031;-69
2023/03/02 00:51:24;;;;;;;37.10;18.67;;;4.50;99.90;;;;;;5113586;28;20240;-67
2023/03/02 00:54:01;;;;;;;33.13;16.80;;;4.50;99.90;;;;;;5129157;28;20038;-67
2023/03/02 00:56:33;;;;;;;37.78;18.27;;;4.50;99.90;;;;;;5113346;28;20043;-68
2023/03/02 00:59:09;;;;;;;37.42;18.45;;;4.50;99.90;;;;;;5129566;28;20601;-68
2023/03/02 01:01:43;;;;;;;32.28;19.30;;;4.50;99.90;;;;;;5186309;22;20118;-68
2023/03/02 01:04:17;;;;;;;36.38;18.70;;;4.50;99.90;;;;;;5105364;28;20052;-69
2023/03/02 01:06:49;;;;;;;36.63;17.90;;;4.60;99.90;;;;;;5134095;28;20061;-67
2023/03/02 01:09:24;;;;;;;34.85;17.77;;;4.60;99.90;;;;;;5148892;28;20279;-67
2023/03/02 01:12:10;;;;;;;33.47;18.33;;;4.50;99.90;;;;;;5148666;28;20502;-68
2023/03/02 01:14:46;;;;;;;40.78;19.05;;;4.50;99.90;;;;;;5132872;28;20222;-69
2023/03/02 01:17:24;;;;;;;43.40;19.50;;;4.50;99.90;;;;;;5148543;28;20029;-69
2023/03/02 01:19:58;;;;;;;30.45;16.95;;;4.50;99.90;;;;;;5117662;28;20045;-67
2023/03/02 01:22:35;;;;;;;33.10;15.10;;;4.60;99.90;;;;;;5134231;28;20046;-68
2023/03/02 01:25:16;;;;;;;39.28;19.08;;;4.60;99.90;;;;;;5134127;28;20034;-68
2023/03/02 01:27:48;;;;;;;39.85;18.50;;;4.60;99.90;;;;;;5124292;28;20052;-68
2023/03/02 01:30:24;;;;;;;41.42;18.20;;;4.60;99.90;;;;;;5164962;28;20046;-68
2023/03/02 01:32:58;;;;;;;39.30;18.88;;;4.70;99.90;;;;;;5145481;28;20039;-68
2023/03/02 01:35:30;;;;;;;34.55;17.52;;;4.70;99.90;;;;;;5130791;28;20051;-68
2023/03/02 01:38:04;;;;;;;39.20;18.17;;;4.70;99.90;;;;;;5138018;28;20030;-68
2023/03/02 01:40:36;;;;;;;;;;;4.80;99.90;;;;;;5135649;28;20038;-67
2023/03/02 01:43:14;;;;;;;37.70;18.05;;;4.80;99.90;;;;;;5149894;28;19921;-65
2023/03/02 01:46:00;;;;;;;35.47;17.80;;;4.80;99.90;;;;;;5148248;28;20060;-69
2023/03/02 01:48:49;;;;;;;38.47;19.30;;;4.80;99.90;;;;;;5131627;28;20562;-67
2023/03/02 01:51:27;;;;;;;40.92;18.67;;;4.80;99.90;;;;;;5135529;28;20035;-68
2023/03/02 01:54:06;;;;;;;40.13;18.77;;;4.70;99.90;;;;;;5150087;28;20508;-67
2023/03/02 01:56:42;;;;;;;34.55;17.45;;;4.60;99.90;;;;;;5149204;28;20053;-69
2023/03/02 01:59:18;;;;;;;42.67;18.30;;;4.60;99.90;;;;;;5133143;28;20050;-68
2023/03/02 02:01:56;;;;;;;42.25;19.75;;;4.60;99.90;;;;;;5128552;28;20053;-67
2023/03/02 02:04:31;;;;;;;34.33;18.27;;;4.60;99.90;;;;;;5132991;28;20223;-68
2023/03/02 02:07:05;;;;;;;36.40;18.35;;;4.70;99.90;;;;;;5134091;28;20538;-68
2023/03/02 02:09:53;;;;;;;37.10;19.50;;;4.60;99.90;;;;;;5134434;28;20049;-68
2023/03/02 02:12:24;;;;;;;40.33;19.33;;;4.60;99.90;;;;;;5148863;28;20042;-68
2023/03/02 02:15:02;;;;;;;34.15;17.23;;;4.50;99.90;;;;;;5133715;28;20046;-67
2023/03/02 02:17:37;;;;;;;39.33;18.13;;;4.50;99.90;;;;;;5148723;28;20050;-67
2023/03/02 02:20:29;;;;;;;37.10;19.25;;;4.40;99.90;;;;;;5133083;28;20054;-65
2023/03/02 02:23:38;;;;;;;34.55;19.13;;;4.30;99.90;;;;;;5133572;28;20045;-69
2023/03/02 02:26:25;;;;;;;34.40;17.23;;;4.20;99.90;;;;;;5148916;28;20053;-69
2023/03/02 02:29:29;;;;;;;36.28;18.85;;;4.20;99.90;;;;;;5124131;28;20065;-65
2023/03/02 02:32:20;;;;;;;32.60;16.95;;;4.00;99.90;;;;;;5135084;28;20038;-69
2023/03/02 02:35:15;;;;;;;41.42;17.27;;;3.90;99.90;;;;;;5136603;28;20048;-67
2023/03/02 02:37:52;;;;;;;;;;;3.80;99.90;;;;;;5116952;28;20045;-68
2023/03/02 02:40:48;;;;;;;36.92;18.05;;;3.80;99.90;;;;;;5101098;28;20087;-66
2023/03/02 02:43:29;;;;;;;37.88;17.63;;;3.60;99.90;;;;;;5133691;28;20042;-66
2023/03/02 02:46:04;;;;;;;31.15;15.38;;;3.60;99.90;;;;;;5131745;28;20552;-68
2023/03/02 02:48:36;;;;;;;27.17;14.75;;;3.50;99.90;;;;;;5142472;28;20456;-68
2023/03/02 02:51:14;;;;;;;36.63;17.77;;;3.50;99.90;;;;;;5132359;28;20058;-68
2023/03/02 02:54:05;;;;;;;37.75;18.77;;;3.40;99.90;;;;;;5114631;28;20054;-68
2023/03/02 02:56:39;;;;;;;36.30;19.20;;;3.20;99.90;;;;;;5137218;28;20516;-68
2023/03/02 02:59:28;;;;;;;41.38;19.05;;;3.00;99.90;;;;;;5149330;28;20214;-67
2023/03/02 03:02:01;;;;;;;37.95;18.52;;;2.90;99.90;;;;;;5136848;28;20057;-68
2023/03/02 03:04:36;;;;;;;30.10;16.58;;;2.70;99.90;;;;;;5145738;28;20054;-69
2023/03/02 03:07:15;;;;;;;32.25;16.50;;;2.60;99.90;;;;;;5121461;28;20052;-70
2023/03/02 03:10:04;;;;;;;32.40;17.38;;;2.40;99.90;;;;;;5153035;28;20026;-69
2023/03/02 03:12:38;;;;;;;41.85;18.67;;;2.20;99.90;;;;;;5153846;28;20034;-68
2023/03/02 03:15:10;;;;;;;;;;;2.10;99.90;;;;;;5133950;28;20047;-68
2023/03/02 03:17:57;;;;;;;37.95;17.88;;;2.10;99.90;;;;;;5119412;28;19910;-68
2023/03/02 03:20:33;;;;;;;36.15;18.42;;;2.00;99.90;;;;;;5135449;28;20050;-70
2023/03/02 03:23:07;;;;;;;40.10;18.13;;;1.90;99.90;;;;;;5135922;28;20048;-69
2023/03/02 03:25:47;;;;;;;46.20;19.83;;;1.70;99.90;;;;;;5136550;28;20143;-68
2023/03/02 03:28:18;;;;;;;44.35;20.20;;;1.70;99.90;;;;;;5121223;28;20048;-69
2023/03/02 03:31:02;;;;;;;36.03;19.85;;;1.70;99.90;;;;;;5135025;28;20046;-65
2023/03/02 03:33:33;;;;;;;42.80;19.90;;;1.70;99.90;;;;;;5131139;28;20045;-68
2023/03/02 03:36:05;;;;;;;42.42;18.88;;;1.60;99.90;;;;;;5116305;28;20030;-69
2023/03/02 03:38:37;;;;;;;45.40;22.05;;;1.60;99.90;;;;;;5112550;28;20141;-69
2023/03/02 03:41:19;;;;;;;48.05;19.58;;;1.50;99.90;;;;;;5149111;28;20068;-69
2023/03/02 03:43:51;;;;;;;41.63;21.23;;;1.50;99.90;;;;;;5133223;28;20039;-68
2023/03/02 03:46:23;;;;;;;32.72;17.38;;;1.30;99.90;;;;;;5115567;28;20047;-68
2023/03/02 03:49:00;;;;;;;41.95;18.83;;;1.30;99.90;;;;;;5147387;28;20033;-69
2023/03/02 03:51:34;;;;;;;41.85;19.85;;;1.20;99.90;;;;;;5141591;28;20152;-68
2023/03/02 03:54:08;;;;;;;45.88;21.13;;;1.00;99.90;;;;;;5131073;28;20370;-69
2023/03/02 03:56:49;;;;;;;40.20;19.42;;;0.90;99.90;;;;;;5130116;28;20035;-69
2023/03/02 03:59:25;;;;;;;46.03;20.15;;;0.80;99.90;;;;;;5117304;28;20046;-69
2023/03/02 04:02:00;;;;;;;41.53;19.70;;;0.60;99.90;;;;;;5106941;28;20072;-68
2023/03/02 04:04:36;;;;;;;45.22;21.08;;;0.60;99.90;;;;;;5132043;28;20378;-68
2023/03/02 04:07:14;;;;;;;44.13;19.33;;;0.60;99.90;;;;;;5117021;28;20043;-69
2023/03/02 04:09:46;;;;;;;41.85;18.38;;;0.50;99.90;;;;;;5133024;28;20042;-66
2023/03/02 04:12:19;;;;;;;39.15;20.05;;;0.50;99.90;;;;;;5135837;28;20564;-67
2023/03/02 04:14:51;;;;;;;41.28;20.27;;;0.60;99.90;;;;;;5121805;28;20053;-68
2023/03/02 04:17:23;;;;;;;37.42;18.95;;;0.50;99.90;;;;;;5133812;28;20042;-67
2023/03/02 04:19:58;;;;;;;38.72;18.05;;;0.50;99.90;;;;;;5132948;28;20049;-68
2023/03/02 04:22:32;;;;;;;34.88;18.45;;;0.50;99.90;;;;;;5133249;28;20034;-67
2023/03/02 04:25:07;;;;;;;45.05;18.95;;;0.50;99.90;;;;;;5116540;28;20069;-68
2023/03/02 04:27:39;;;;;;;36.58;18.02;;;0.50;99.90;;;;;;5127050;28;20041;-67
2023/03/02 04:30:12;;;;;;;49.65;20.67;;;0.50;99.90;;;;;;5113046;28;20039;-68
2023/03/02 04:32:43;;;;;;;37.58;17.60;;;0.50;99.90;;;;;;5123428;28;20634;-68
2023/03/02 04:35:17;;;;;;;39.22;18.88;;;0.40;99.90;;;;;;5117876;28;20042;-69
2023/03/02 04:37:54;;;;;;;;;;;0.40;99.90;;;;;;5116245;28;20061;-68
2023/03/02 04:40:26;;;;;;;38.88;19.00;;;0.40;99.90;;;;;;5133644;28;20194;-72
2023/03/02 04:42:59;;;;;;;40.97;19.65;;;0.40;99.90;;;;;;5101435;28;20035;-68
2023/03/02 04:45:32;;;;;;;37.08;17.80;;;0.40;99.90;;;;;;5115091;28;20063;-69
2023/03/02 04:48:09;;;;;;;37.58;17.80;;;0.40;99.90;;;;;;5133683;28;20035;-68
2023/03/02 04:50:43;;;;;;;39.53;18.85;;;0.30;99.90;;;;;;5149557;28;20188;-69
2023/03/02 04:53:19;;;;;;;36.17;16.27;;;0.30;99.90;;;;;;5128850;28;20055;-70
2023/03/02 04:55:53;;;;;;;40.45;18.13;;;0.30;99.90;;;;;;5145246;28;20057;-69
2023/03/02 04:58:26;;;;;;;42.70;19.67;;;0.20;99.90;;;;;;5119082;28;20042;-67
2023/03/02 05:01:01;;;;;;;41.37;20.20;;;0.20;99.90;;;;;;5129770;28;20035;-69
2023/03/02 05:03:32;;;;;;;44.25;20.88;;;0.10;99.90;;;;;;5113355;28;20272;-67
2023/03/02 05:06:06;;;;;;;34.30;18.98;;;0.10;99.90;;;;;;5126512;28;20050;-68
2023/03/02 05:08:38;;;;;;;;;;;0.10;99.90;;;;;;5115112;28;20046;-68
2023/03/02 05:11:20;;;;;;;37.97;19.10;;;0.00;99.90;;;;;;5129679;28;19918;-67
2023/03/02 05:13:59;;;;;;;50.65;21.15;;;-0.10;99.90;;;;;;5147702;28;20039;-67
2023/03/02 05:16:34;;;;;;;40.35;19.65;;;-0.10;99.90;;;;;;5144757;28;20500;-65
2023/03/02 05:19:10;;;;;;;41.95;21.00;;;-0.10;99.90;;;;;;5130607;28;20047;-68
2023/03/02 05:21:45;;;;;;;34.47;17.15;;;-0.10;99.90;;;;;;5130169;28;20047;-67
2023/03/02 05:24:17;;;;;;;41.25;19.27;;;-0.20;99.90;;;;;;5130848;28;20046;-67
2023/03/02 05:26:48;;;;;;;45.28;21.50;;;-0.20;99.90;;;;;;5125983;28;20054;-67
2023/03/02 05:29:20;;;;;;;41.10;19.02;;;-0.20;99.90;;;;;;5132696;28;20480;-67
2023/03/02 05:31:57;;;;;;;45.80;20.50;;;-0.20;99.90;;;;;;5130506;28;20043;-68
2023/03/02 05:34:28;;;;;;;49.10;20.23;;;-0.10;99.90;;;;;;5114251;28;20041;-67
2023/03/02 05:37:08;;;;;;;47.08;20.98;;;0.00;99.90;;;;;;5129478;28;20347;-66
2023/03/02 05:39:42;;;;;;;44.53;22.17;;;0.10;99.90;;;;;;5129872;28;20035;-67
2023/03/02 05:42:14;;;;;;;38.88;19.77;;;0.10;99.90;;;;;;5130474;28;20046;-67
2023/03/02 05:44:45;;;;;;;46.90;19.95;;;0.10;99.90;;;;;;5129730;28;20026;-67
2023/03/02 05:47:19;;;;;;;48.83;22.02;;;0.20;99.90;;;;;;5128249;28;20051;-67
2023/03/02 05:49:52;;;;;;;50.95;22.35;;;0.20;99.90;;;;;;5116670;28;20038;-66
2023/03/02 05:52:24;;;;;;;43.63;20.58;;;0.20;99.90;;;;;;5128594;28;20041;-66
2023/03/02 05:54:55;;;;;;;46.80;21.20;;;0.30;99.90;;;;;;5130924;28;20390;-67
2023/03/02 05:57:30;;;;;;;43.45;20.42;;;0.30;99.90;;;;;;5120257;28;20044;-68
2023/03/02 06:00:01;;;;;;;40.63;20.13;;;0.30;99.90;;;;;;5131253;28;20058;-66
2023/03/02 06:02:37;;;;;;;38.80;20.17;;;0.20;99.90;;;;;;5124099;28;20331;-65
2023/03/02 06:05:21;;;;;;;49.88;21.25;;;0.20;99.90;;;;;;5096446;28;20058;-67
2023/03/02 06:07:53;;;;;;;36.40;18.55;;;0.20;99.90;;;;;;5116118;28;20596;-68
2023/03/02 06:10:25;;;;;;;37.42;18.55;;;0.20;99.90;;;;;;5115316;28;20068;-68
2023/03/02 06:12:56;;;;;;;41.00;20.30;;;0.20;99.90;;;;;;5103005;28;20038;-66
2023/03/02 06:15:30;;;;;;;37.40;19.75;;;0.30;99.90;;;;;;5137536;28;20593;-65
2023/03/02 06:18:04;;;;;;;35.33;17.80;;;0.40;99.90;;;;;;5124124;28;20353;-64
2023/03/02 06:20:42;;;;;;;46.83;22.63;;;0.40;99.90;;;;;;5127796;28;20800;-67
2023/03/02 06:23:13;;;;;;;47.95;23.85;;;0.40;99.90;;;;;;5117582;28;20050;-65
2023/03/02 06:25:47;;;;;;;41.58;20.60;;;0.50;99.90;;;;;;5144062;28;20041;-67
2023/03/02 06:28:19;;;;;;;48.00;23.02;;;0.60;99.90;;;;;;5128641;28;20331;-67
2023/03/02 06:30:53;;;;;;;43.42;20.17;;;0.80;99.90;;;;;;5123563;28;20035;-68
2023/03/02 06:33:25;;;;;;;54.13;23.08;;;1.00;99.90;;;;;;5145055;28;20030;-67
2023/03/02 06:36:01;;;;;;;49.35;23.73;;;1.20;99.90;;;;;;5150515;28;20366;-66
2023/03/02 06:38:33;;;;;;;49.72;22.95;;;1.40;99.90;;;;;;5133243;28;20056;-69
2023/03/02 06:41:04;;;;;;;40.85;21.63;;;1.50;99.90;;;;;;5149558;28;20034;-66
2023/03/02 06:43:38;;;;;;;48.47;23.88;;;1.70;99.90;;;;;;5165369;28;20056;-68
2023/03/02 06:46:15;;;;;;;48.13;21.00;;;1.80;99.90;;;;;;5142614;28;20045;-68
2023/03/02 06:48:46;;;;;;;42.35;21.80;;;2.00;99.90;;;;;;5138205;28;20043;-68
2023/03/02 06:51:20;;;;;;;43.10;21.45;;;2.20;99.90;;;;;;5148721;28;20030;-68
2023/03/02 06:53:57;;;;;;;34.35;18.65;;;2.40;99.90;;;;;;5136332;28;20288;-67
2023/03/02 06:56:29;;;;;;;52.10;21.83;;;2.60;99.90;;;;;;5120327;28;20211;-65
2023/03/02 06:59:05;;;;;;;36.72;19.73;;;2.80;99.90;;;;;;5134800;28;20038;-66
2023/03/02 07:01:45;;;;;;;48.15;23.05;;;2.90;99.90;;;;;;5130206;28;20050;-68
2023/03/02 07:04:17;;;;;;;41.65;21.33;;;3.10;99.90;;;;;;5123385;28;20053;-66
2023/03/02 07:06:48;;;;;;;40.60;20.20;;;3.30;99.90;;;;;;5115730;28;20041;-68
2023/03/02 07:09:22;;;;;;;40.65;22.20;;;3.50;99.90;;;;;;5133130;28;20239;-67
2023/03/02 07:11:54;;;;;;;52.00;22.55;;;3.60;99.90;;;;;;5106955;28;20050;-67
2023/03/02 07:14:25;;;;;;;38.67;19.58;;;3.70;99.90;;;;;;5105838;28;20231;-66
2023/03/02 07:17:02;;;;;;;45.92;21.50;;;3.60;99.90;;;;;;5140058;28;20057;-68
2023/03/02 07:19:34;;;;;;;48.45;22.02;;;3.80;99.90;;;;;;5146594;28;20294;-68
2023/03/02 07:22:08;;;;;;;40.20;21.73;;;4.10;1.00;;;;;;5132504;28;20052;-68
2023/03/02 07:24:39;;;;;;;43.63;20.85;;;4.20;99.90;;;;;;5135679;28;20215;-67
2023/03/02 07:27:16;;;;;;;39.20;20.30;;;4.50;99.90;;;;;;5114554;28;20049;-68
2023/03/02 07:29:54;;;;;;;42.58;21.60;;;4.70;99.90;;;;;;5115093;28;20074;-68
2023/03/02 07:32:26;;;;;;;43.10;20.80;;;4.90;99.90;;;;;;5132370;28;20211;-68
2023/03/02 07:34:57;;;;;;;46.45;24.15;;;5.20;99.90;;;;;;5131861;28;20345;-68
2023/03/02 07:37:29;;;;;;;42.22;21.65;;;5.30;99.90;;;;;;5132666;28;20259;-67
2023/03/02 07:40:03;;;;;;;40.35;20.35;;;5.30;99.90;;;;;;5140251;28;20369;-67
2023/03/02 07:42:38;;;;;;;42.13;19.90;;;5.30;99.90;;;;;;5099657;28;20045;-69
2023/03/02 07:45:11;;;;;;;;;;;5.60;99.90;;;;;;5115548;28;20157;-68
2023/03/02 07:47:47;;;;;;;41.75;18.77;;;5.70;99.90;;;;;;5115610;28;19917;-71
2023/03/02 07:50:19;;;;;;;34.80;18.38;;;5.80;99.90;;;;;;5120610;28;20043;-70
2023/03/02 07:52:56;;;;;;;36.78;18.73;;;5.90;99.90;;;;;;5131576;28;20521;-70
2023/03/02 07:55:27;;;;;;;43.20;21.20;;;6.00;99.90;;;;;;5114735;28;20043;-66
2023/03/02 07:57:59;;;;;;;37.53;19.85;;;5.90;99.90;;;;;;5114577;28;20039;-69
2023/03/02 08:00:33;;;;;;;43.65;20.35;;;6.00;99.90;;;;;;5114731;28;20334;-69
2023/03/02 08:03:07;;;;;;;38.53;20.77;;;6.10;99.90;;;;;;5136082;28;20042;-68
2023/03/02 08:05:38;;;;;;;43.80;19.42;;;6.20;99.90;;;;;;5107485;28;20050;-70
2023/03/02 08:08:09;;;;;;;38.75;20.48;;;6.30;99.90;;;;;;5136967;28;20207;-67
2023/03/02 08:10:41;;;;;;;39.03;20.00;;;6.50;99.90;;;;;;5131712;28;20334;-67
2023/03/02 08:13:15;;;;;;;43.50;21.05;;;6.60;99.90;;;;;;5115961;28;20228;-67
2023/03/02 08:15:47;;;;;;;37.78;19.02;;;6.70;99.90;;;;;;5149875;28;20061;-67
2023/03/02 08:18:21;;;;;;;38.70;19.60;;;6.90;99.90;;;;;;5132157;28;20072;-65
2023/03/02 08:20:55;;;;;;;44.25;22.33;;;7.00;99.90;;;;;;5141019;28;20031;-69
2023/03/02 08:23:35;;;;;;;46.00;20.38;;;6.80;99.90;;;;;;5140243;28;20057;-68
2023/03/02 08:26:07;;;;;;;39.42;21.40;;;6.80;99.90;;;;;;5121499;28;20030;-69
2023/03/02 08:28:39;;;;;;;42.35;21.55;;;6.90;99.90;;;;;;5098861;28;20311;-68
2023/03/02 08:31:15;;;;;;;41.67;22.55;;;6.60;99.90;;;;;;5140374;28;20331;-69
2023/03/02 08:33:48;;;;;;;41.47;20.33;;;6.10;99.90;;;;;;5136054;28;20031;-69
2023/03/02 08:36:20;;;;;;;39.83;20.35;;;6.40;99.90;;;;;;5136925;28;20050;-71
2023/03/02 08:38:53;;;;;;;40.33;20.33;;;6.90;99.90;;;;;;5118087;28;20057;-66
2023/03/02 08:41:25;;;;;;;40.00;21.02;;;7.40;99.90;;;;;;5150756;28;20037;-71
2023/03/02 08:43:59;;;;;;;42.05;21.95;;;8.00;99.90;;;;;;5149905;28;20328;-69
2023/03/02 08:46:36;;;;;;;38.00;20.63;;;7.80;99.90;;;;;;5131077;28;20042;-69
2023/03/02 08:49:10;;;;;;;43.80;21.10;;;8.00;99.90;;;;;;5117640;28;20041;-66
2023/03/02 08:51:52;;;;;;;;;;;8.20;99.90;;;;;;5099001;28;20065;-67
2023/03/02 08:54:26;;;;;;;38.08;20.95;;;8.60;99.90;;;;;;5130084;28;20180;-67
2023/03/02 08:56:59;;;;;;;44.33;23.33;;;8.50;99.90;;;;;;5129331;28;20038;-68
2023/03/02 08:59:30;;;;;;;40.40;20.10;;;7.90;99.90;;;;;;5132029;28;20461;-69
2023/03/02 09:02:05;;;;;;;40.00;20.80;;;8.00;99.90;;;;;;5145532;28;20175;-70
2023/03/02 09:04:39;;;;;;;;;;;8.20;99.90;;;;;;5110320;28;20413;-69
2023/03/02 09:07:16;;;;;;;41.25;20.73;;;8.60;99.90;;;;;;5117711;28;19944;-68
2023/03/02 09:09:52;;;;;;;42.95;20.52;;;8.80;99.90;;;;;;5149969;28;20060;-69
2023/03/02 09:12:26;;;;;;;47.72;22.13;;;9.10;99.90;;;;;;5130689;28;20038;-69
2023/03/02 09:14:58;;;;;;;38.80;20.27;;;9.40;99.90;;;;;;5144961;28;20245;-68
2023/03/02 09:17:31;;;;;;;41.40;21.35;;;9.50;99.90;;;;;;5145433;28;20034;-68
2023/03/02 09:20:05;;;;;;;48.05;21.45;;;9.80;99.90;;;;;;5148946;28;20044;-68
2023/03/02 09:22:37;;;;;;;39.80;21.40;;;9.90;99.90;;;;;;5165251;28;20048;-69
2023/03/02 09:25:08;;;;;;;34.75;19.48;;;9.80;99.90;;;;;;5132767;28;20080;-70
2023/03/02 09:27:41;;;;;;;42.85;21.30;;;9.70;99.90;;;;;;5135220;28;20054;-69
2023/03/02 09:30:16;;;;;;;46.25;21.65;;;9.70;99.90;;;;;;5123022;28;20057;-69
2023/03/02 09:32:48;;;;;;;35.22;19.63;;;9.90;99.90;;;;;;5119541;28;20089;-69
2023/03/02 09:35:19;;;;;;;36.50;18.83;;;10.30;99.90;;;;;;5129867;28;20057;-69
2023/03/02 09:37:53;;;;;;;36.70;20.00;;;10.50;99.90;;;;;;5132086;28;20039;-70
2023/03/02 09:40:29;;;;;;;39.47;20.13;;;10.50;99.90;;;;;;5131769;28;20054;-71
2023/03/02 09:43:09;;;;;;;36.88;18.88;;;10.30;99.90;;;;;;5115104;28;20058;-70
2023/03/02 09:46:18;;;;;;;36.03;20.17;;;10.70;99.90;;;;;;5119597;28;20043;-70
2023/03/02 09:50:01;;;;;;;31.35;16.25;;;11.10;99.90;;;;;;5139836;28;20314;-69
2023/03/02 09:53:04;;;;;;;33.67;18.23;;;11.30;99.90;;;;;;5111471;28;20185;-68
2023/03/02 09:55:37;;;;;;;30.52;17.42;;;11.60;99.90;;;;;;5115512;28;20057;-69
2023/03/02 09:58:19;;;;;;;37.80;19.42;;;12.00;99.90;;;;;;5106822;28;20042;-67
2023/03/02 10:00:50;;;;;;;37.72;19.48;;;12.20;99.90;;;;;;5108711;28;20039;-68
2023/03/02 10:03:34;;;;;;;34.70;19.05;;;12.10;99.90;;;;;;5094003;28;20050;-69
2023/03/02 10:06:08;;;;;;;31.05;18.55;;;11.90;99.90;;;;;;5088183;28;20383;-68
2023/03/02 10:08:43;;;;;;;37.78;17.60;;;11.50;99.90;;;;;;5111300;28;20046;-68
2023/03/02 10:11:59;;;;;;;;;;;12.00;99.90;;;;;;5131261;28;20048;-69
2023/03/02 10:14:41;;;;;;;27.67;17.43;;;12.60;99.90;;;;;;5115369;28;19951;-66
2023/03/02 10:17:50;;;;;;;34.33;18.15;;;13.30;99.90;;;;;;5132482;28;20604;-69
2023/03/02 10:20:39;;;;;;;43.28;17.73;;;13.80;99.90;;;;;;5139789;28;20048;-68
2023/03/02 10:23:40;;;;;;;37.55;18.83;;;14.30;99.90;;;;;;5126875;28;20246;-68
2023/03/02 10:26:44;;;;;;;36.08;19.17;;;14.60;99.90;;;;;;5078724;28;20281;-68
2023/03/02 10:29:52;;;;;;;36.15;18.25;;;14.80;99.90;;;;;;5128820;28;20274;-67
2023/03/02 10:32:32;;;;;;;34.60;18.30;;;13.80;99.90;;;;;;5121289;28;20208;-68
2023/03/02 10:35:22;;;;;;;33.80;17.85;;;14.70;99.90;;;;;;5109345;28;20291;-68
2023/03/02 10:38:22;;;;;;;33.22;18.98;;;15.00;99.90;;;;;;5132426;28;20579;-68
2023/03/02 10:41:01;;;;;;;28.38;16.65;;;15.30;99.90;;;;;;5126599;28;20041;-68
2023/03/02 10:43:47;;;;;;;34.38;17.95;;;16.10;99.90;;;;;;5135416;28;20039;-67
2023/03/02 10:46:22;;;;;;;30.55;17.02;;;16.70;99.90;;;;;;5104468;28;20076;-67
2023/03/02 10:48:59;;;;;;;29.60;18.02;;;15.30;99.90;;;;;;5117151;28;20061;-68
2023/03/02 10:51:36;;;;;;;29.67;18.10;;;15.60;99.90;;;;;;5096549;28;20051;-68
2023/03/02 10:54:15;;;;;;;26.30;17.70;;;16.30;99.90;;;;;;5135486;28;20034;-68
2023/03/02 10:56:56;;;;;;;32.63;17.92;;;15.90;99.90;;;;;;5119850;28;20049;-69
2023/03/02 10:59:42;;;;;;;28.23;17.73;;;16.60;99.90;;;;;;5114852;28;20046;-69
2023/03/02 11:02:32;;;;;;;26.10;15.20;;;17.60;99.90;;;;;;5121700;28;20368;-69
2023/03/02 11:05:30;;;;;;;28.83;16.45;;;18.00;99.90;;;;;;5106344;28;20053;-70
2023/03/02 11:08:09;;;;;;;26.27;15.93;;;17.90;99.90;;;;;;5146545;28;20315;-68
2023/03/02 11:10:55;;;;;;;28.77;16.42;;;17.70;99.90;;;;;;5128956;28;20054;-69
2023/03/02 11:13:37;;;;;;;25.08;15.32;;;18.60;99.90;;;;;;5130486;28;20039;-69
2023/03/02 11:16:20;;;;;;;28.25;16.33;;;18.70;99.90;;;;;;5118807;28;20046;-68
2023/03/02 11:18:53;;;;;;;26.48;15.65;;;19.50;99.90;;;;;;5125244;28;20041;-67
2023/03/02 11:21:43;;;;;;;27.15;16.35;;;20.40;99.90;;;;;;5103782;28;20353;-69
2023/03/02 11:24:31;;;;;;;27.55;16.35;;;20.50;99.90;;;;;;5108710;28;20046;-68
2023/03/02 11:27:15;;;;;;;26.73;15.57;;;20.00;99.90;;;;;;5124963;28;20050;-67
2023/03/02 11:29:56;;;;;;;25.35;16.92;;;19.20;99.90;;;;;;5131594;28;20038;-66
2023/03/02 11:32:36;;;;;;;23.80;14.77;;;19.60;99.90;;;;;;5133793;28;20200;-69
2023/03/02 11:35:37;;;;;;;23.65;14.63;;;20.30;99.90;;;;;;5116004;28;20050;-69
2023/03/02 11:38:50;;;;;;;23.65;14.55;;;20.40;99.90;;;;;;5088464;28;20054;-69
2023/03/02 11:41:37;;;;;;;26.60;14.75;;;20.20;99.90;;;;;;5107967;28;20050;-67
2023/03/02 11:44:18;;;;;;;22.77;15.52;;;19.80;99.90;;;;;;5131567;28;20041;-69
2023/03/02 11:46:59;;;;;;;23.15;14.73;;;20.70;99.90;;;;;;5103010;28;20068;-69
2023/03/02 11:49:55;;;;;;;24.13;14.02;;;20.50;99.90;;;;;;5126757;28;20078;-67
2023/03/02 11:52:34;;;;;;;24.77;14.68;;;19.90;99.90;;;;;;5128087;28;20042;-69
2023/03/02 11:55:21;;;;;;;21.55;12.95;;;19.40;99.90;;;;;;5131090;28;20182;-68
2023/03/02 11:58:02;;;;;;;23.17;14.02;;;19.10;99.90;;;;;;5141271;28;20088;-68
2023/03/02 12:00:40;;;;;;;20.40;13.98;;;19.30;99.90;;;;;;5143296;28;20030;-69
2023/03/02 12:03:15;;;;;;;28.75;14.70;;;19.60;99.90;;;;;;5162500;28;20044;-68
2023/03/02 12:05:58;;;;;;;19.85;13.55;;;19.90;99.90;;;;;;5129977;28;20224;-67
2023/03/02 12:08:37;;;;;;;22.52;14.05;;;20.40;99.90;;;;;;5156981;28;20394;-68
2023/03/02 12:11:20;;;;;;;26.10;14.30;;;20.60;99.90;;;;;;5154582;28;20208;-67
2023/03/02 12:13:51;;;;;;;22.05;13.65;;;20.90;99.70;;;;;;5129996;28;20440;-66
2023/03/02 12:16:44;;;;;;;20.80;12.55;;;21.70;99.90;;;;;;5119950;28;20046;-67
2023/03/02 12:19:16;;;;;;;24.10;12.40;;;20.90;97.50;;;;;;5113986;28;20319;-72
2023/03/02 12:22:09;;;;;;;19.98;11.27;;;19.50;97.60;;;;;;5148079;28;20342;-69
2023/03/02 12:24:43;;;;;;;17.60;9.60;;;19.20;97.90;;;;;;5128562;28;20056;-70
2023/03/02 12:27:15;;;;;;;12.55;8.82;;;20.10;97.00;;;;;;5137611;28;20058;-70
2023/03/02 12:30:25;;;;;;;16.20;9.88;;;19.50;97.90;;;;;;5134400;28;20050;-71
2023/03/02 12:33:09;;;;;;;18.90;10.02;;;20.70;96.30;;;;;;5120370;28;20046;-69
2023/03/02 12:35:44;;;;;;;15.57;9.70;;;22.20;95.90;;;;;;5143094;28;20379;-69
2023/03/02 12:38:37;;;;;;;20.38;11.00;;;19.90;96.20;;;;;;5139445;28;20040;-69
2023/03/02 12:41:47;;;;;;;20.33;10.63;;;19.70;96.00;;;;;;5155832;28;20071;-71
2023/03/02 12:44:33;;;;;;;18.95;9.57;;;20.00;97.30;;;;;;5137815;28;20044;-69
2023/03/02 12:47:16;;;;;;;15.65;10.27;;;22.20;93.70;;;;;;5124260;28;20049;-70
2023/03/02 12:49:56;;;;;;;16.73;10.30;;;21.20;95.70;;;;;;5099871;28;20117;-69
2023/03/02 12:52:35;;;;;;;18.30;11.10;;;19.90;93.40;;;;;;5113877;28;20052;-68
2023/03/02 12:55:18;;;;;;;17.77;11.82;;;18.90;94.20;;;;;;5099005;28;20327;-67
2023/03/02 12:58:02;;;;;;;18.92;11.38;;;19.30;95.60;;;;;;5108724;28;20038;-69
2023/03/02 13:00:39;;;;;;;19.80;11.77;;;20.30;93.30;;;;;;5130017;28;20598;-67
2023/03/02 13:03:15;;;;;;;18.55;11.25;;;20.60;95.30;;;;;;5130411;28;20045;-67
2023/03/02 13:05:48;;;;;;;17.10;10.90;;;20.70;95.00;;;;;;5139035;28;20052;-67
2023/03/02 13:08:26;;;;;;;14.55;10.00;;;20.80;94.70;;;;;;5127719;28;20180;-68
2023/03/02 13:11:01;;;;;;;16.58;10.00;;;21.20;91.60;;;;;;5115089;28;20045;-68
2023/03/02 13:13:42;;;;;;;16.45;9.88;;;21.30;92.80;;;;;;5144655;28;20045;-69
2023/03/02 13:16:26;;;;;;;16.92;11.10;;;20.50;91.10;;;;;;5143273;28;20233;-67
2023/03/02 13:19:17;;;;;;;16.80;11.10;;;19.80;92.10;;;;;;5130513;28;20073;-68
2023/03/02 13:21:49;;;;;;;17.95;10.73;;;19.70;92.30;;;;;;5115488;28;20035;-67
2023/03/02 13:24:48;;;;;;;17.15;10.27;;;20.40;91.40;;;;;;5113090;28;20031;-68
2023/03/02 13:27:23;;;;;;;19.20;11.00;;;20.80;91.90;;;;;;5121141;28;20033;-67
2023/03/02 13:30:11;;;;;;;23.08;11.20;;;20.60;90.80;;;;;;5098500;28;20565;-70
2023/03/02 13:32:42;;;;;;;17.67;11.30;;;20.80;91.20;;;;;;5139376;28;20030;-64
2023/03/02 13:35:26;;;;;;;15.25;10.93;;;20.60;90.30;;;;;;5133668;28;20048;-70